Íslenskir flugvellir

Veldu flugvelli í þeirri röð sem þeir eiga að birtast og styddu á hnappinn

Uppfært síðast 23.10.2021 - kl. 09:26

SIGMET síðustu 6 klst.

Engin SIGMET skeyti bárust síðustu 6 klst.

Akureyri

METAR síðustu 3 klst

TímiSkeyti
2021-10-23 09.00METAR BIAR 230900Z 19007KT 9999 FEW051 SCT062 BKN180 00/M00 Q0989
2021-10-23 08.00METAR BIAR 230800Z 14005KT 9999 FEW051 SCT062 00/M00 Q0989
2021-10-23 07.00METAR BIAR 230700Z 20005KT 9999 FEW061 00/M00 Q0990

TAF

TAFBIAR2021-10-23 07.47Z23090918006KT 9999 FEW050 TX05/2315Z TNM01/2409Z

Allur vindur er réttvísandi bæði í Metar og frá sjálfvirkum veðurstöðvum




Aðrir tengdir vefir



Þetta vefsvæði byggir á Eplica